KEHA

Elkhart-Morton County Airport

Elkhart, Kansas, USA
METAR KEHA 171635Z AUTO 07008KT 050V110 10SM CLR 29/22 A3020 RMK AO2 T02850216
Observed Flight Rules
Aug-17 @ 16:35 UTC (16 minutes ago) Visual Flight Rules
Wind Visibility Clouds
70° at 8 knots 10 miles
  • Clear skies
Temperatures Readings
Current 29°C / 84°F
Dewpoint 22°C / 72°F
Humidity 66%
Altimeter 30.2" Hg
Pressure 1023 hPa
Elevation 1099
METAR KEHA 171635Z AUTO 07008KT 050V110 10SM CLR 29/22 A3020 RMK AO2 T02850216
Observed Flight Rules
Aug-17 @ 16:35 UTC
(16 minutes ago)
VFR
Wind Visibility
70° at 8 knots 10 miles
Clouds
  • Clear skies
Temperature Dewpoint
29°C / 84°F 22°C / 72°F
Humidity Altimeter Pressure
66% 30.2" Hg 1023 hPa